Time;durP1;ratioP1;P1;durP2;ratioP2;P2;SDS_P1;SDS_P2;PMS_P1;PMS_P2;Temp;Humidity;BMP_temperature;BMP_pressure;BME280_temperature;BME280_humidity;BME280_pressure;Samples;Min_cycle;Max_cycle;Signal;HPM_P1;HPM_P2
2023/04/13 00:01:26;;;;;;;1.00;0.40;;;20.30;99.90;;;;;;5070366;28;20078;-65
2023/04/13 00:03:53;;;;;;;0.75;0.30;;;20.10;99.90;;;;;;5061754;28;20025;-65
2023/04/13 00:06:21;;;;;;;1.92;0.50;;;19.90;99.90;;;;;;5060546;28;20025;-65
2023/04/13 00:08:49;;;;;;;7.03;1.00;;;19.80;99.90;;;;;;5055448;28;20032;-66
2023/04/13 00:11:16;;;;;;;3.03;0.50;;;19.70;99.90;;;;;;5060828;28;20021;-65
2023/04/13 00:13:46;;;;;;;2.17;0.55;;;19.80;99.90;;;;;;5072237;28;20027;-62
2023/04/13 00:16:16;;;;;;;3.97;0.65;;;20.00;99.90;;;;;;5079280;28;20116;-63
2023/04/13 00:18:44;;;;;;;3.40;0.52;;;20.00;99.90;;;;;;5076378;28;20021;-63
2023/04/13 00:21:11;;;;;;;0.85;0.65;;;20.10;99.90;;;;;;5061238;28;20029;-64
2023/04/13 00:23:39;;;;;;;1.13;0.40;;;20.00;99.90;;;;;;5067824;28;20735;-63
2023/04/13 00:26:07;;;;;;;5.00;0.60;;;20.10;99.90;;;;;;5068157;28;20034;-62
2023/04/13 00:28:34;;;;;;;3.75;0.60;;;20.20;99.90;;;;;;5078598;28;20036;-63
2023/04/13 00:31:02;;;;;;;0.90;0.50;;;20.30;99.90;;;;;;5074367;28;20399;-64
2023/04/13 00:33:29;;;;;;;1.73;1.00;;;20.40;99.90;;;;;;5052640;28;20035;-64
2023/04/13 00:35:57;;;;;;;1.65;0.60;;;20.50;99.90;;;;;;5058332;28;20060;-63
2023/04/13 00:38:26;;;;;;;2.90;1.13;;;20.50;99.90;;;;;;5060470;28;20033;-63
2023/04/13 00:40:54;;;;;;;1.80;0.50;;;20.40;99.90;;;;;;5060701;28;20048;-64
2023/04/13 00:43:22;;;;;;;2.78;0.52;;;20.20;99.90;;;;;;5065346;28;20067;-64
2023/04/13 00:45:50;;;;;;;1.45;0.68;;;20.10;99.90;;;;;;5058727;28;20914;-65
2023/04/13 00:48:17;;;;;;;2.13;0.52;;;20.10;99.90;;;;;;5080715;28;20037;-67
2023/04/13 00:50:46;;;;;;;2.47;0.50;;;20.10;99.90;;;;;;5069751;28;20028;-63
2023/04/13 00:53:14;;;;;;;2.55;0.60;;;20.10;99.90;;;;;;5065283;28;20041;-65
2023/04/13 00:55:42;;;;;;;2.95;1.15;;;20.30;99.90;;;;;;5073203;28;20024;-65
2023/04/13 00:58:12;;;;;;;1.95;0.63;;;20.40;99.90;;;;;;5062136;28;20545;-65
2023/04/13 01:00:41;;;;;;;2.47;0.65;;;20.60;99.90;;;;;;5052116;28;20079;-66
2023/04/13 01:03:09;;;;;;;2.60;0.57;;;20.80;99.90;;;;;;5076127;28;20440;-65
2023/04/13 01:05:49;;;;;;;1.17;0.40;;;21.00;99.90;;;;;;5062484;28;20017;-65
2023/04/13 01:08:22;;;;;;;3.55;0.50;;;21.30;99.90;;;;;;5066876;28;20044;-65
2023/04/13 01:11:31;;;;;;;2.60;0.40;;;21.40;99.90;;;;;;5071963;28;20017;-66
2023/04/13 01:14:35;;;;;;;1.60;0.60;;;21.50;99.90;;;;;;5052332;28;20028;-66
2023/04/13 01:17:07;;;;;;;1.92;0.55;;;21.70;99.90;;;;;;5061543;28;20437;-65
2023/04/13 01:19:58;;;;;;;3.50;0.50;;;22.00;99.90;;;;;;5076979;28;20875;-65
2023/04/13 01:22:29;;;;;;;2.05;0.40;;;22.40;99.90;;;;;;5057600;28;20033;-65
2023/04/13 01:25:18;;;;;;;1.38;0.28;;;22.60;99.90;;;;;;5048531;28;20025;-65
2023/04/13 01:27:49;;;;;;;1.63;0.32;;;22.50;99.90;;;;;;5061053;28;20041;-64
2023/04/13 01:30:22;;;;;;;10.30;0.73;;;22.40;99.90;;;;;;5075285;28;20020;-65
2023/04/13 01:32:54;;;;;;;2.63;0.70;;;22.30;99.90;;;;;;5068031;28;20028;-65
2023/04/13 01:35:24;;;;;;;3.05;1.20;;;22.30;99.90;;;;;;5067811;28;20025;-66
2023/04/13 01:37:52;;;;;;;4.75;0.60;;;22.40;99.90;;;;;;5053302;28;20757;-66
2023/04/13 01:40:21;;;;;;;6.25;0.63;;;22.80;99.90;;;;;;5053689;28;20021;-66
2023/04/13 01:42:49;;;;;;;1.40;0.40;;;22.90;99.90;;;;;;5058356;28;20021;-62
2023/04/13 01:45:24;;;;;;;1.08;0.30;;;22.80;99.90;;;;;;5057180;28;20021;-62
2023/04/13 01:47:58;;;;;;;;;;;22.80;99.90;;;;;;5068521;28;20036;-62
2023/04/13 01:50:30;;;;;;;3.50;0.60;;;22.70;99.90;;;;;;5061762;28;19963;-63
2023/04/13 01:53:10;;;;;;;1.25;0.50;;;22.60;99.90;;;;;;5065168;28;20052;-65
2023/04/13 01:55:40;;;;;;;1.70;0.40;;;22.30;99.90;;;;;;5068325;28;20028;-63
2023/04/13 01:58:10;;;;;;;0.98;0.30;;;22.30;99.90;;;;;;5057830;28;20020;-61
2023/04/13 02:00:38;;;;;;;0.85;0.30;;;22.50;99.90;;;;;;5058010;28;20029;-62
2023/04/13 02:03:07;;;;;;;2.17;0.40;;;22.80;99.90;;;;;;5056478;28;20059;-62
2023/04/13 02:05:41;;;;;;;1.40;0.50;;;22.70;99.90;;;;;;5066261;28;20085;-61
2023/04/13 02:08:09;;;;;;;2.08;0.50;;;22.50;99.90;;;;;;5056748;28;20067;-62
2023/04/13 02:10:38;;;;;;;2.17;0.50;;;22.20;99.90;;;;;;5062508;28;20063;-61
2023/04/13 02:13:08;;;;;;;1.50;0.40;;;22.00;99.90;;;;;;5063502;28;20036;-62
2023/04/13 02:15:37;;;;;;;2.75;0.32;;;21.70;99.90;;;;;;5065818;28;20036;-61
2023/04/13 02:18:05;;;;;;;2.95;0.40;;;21.60;99.90;;;;;;5058617;28;20065;-62
2023/04/13 02:20:42;;;;;;;0.93;0.25;;;21.70;99.90;;;;;;5055392;28;20037;-62
2023/04/13 02:23:14;;;;;;;2.53;0.30;;;22.10;99.90;;;;;;5054250;28;20511;-62
2023/04/13 02:25:43;;;;;;;1.15;0.73;;;22.40;99.90;;;;;;5063770;28;20056;-62
2023/04/13 02:28:11;;;;;;;1.13;0.22;;;22.80;99.90;;;;;;5069550;28;20029;-62
2023/04/13 02:30:38;;;;;;;2.28;0.70;;;23.30;99.90;;;;;;5073990;28;20024;-62
2023/04/13 02:33:08;;;;;;;0.43;0.32;;;23.80;99.90;;;;;;5068023;28;20077;-62
2023/04/13 02:35:37;;;;;;;2.72;0.40;;;23.80;99.90;;;;;;5058170;28;20031;-61
2023/04/13 02:38:06;;;;;;;0.85;0.22;;;23.90;99.90;;;;;;5063934;28;20045;-61
2023/04/13 02:40:35;;;;;;;0.50;0.20;;;23.50;99.90;;;;;;5053173;28;20095;-61
2023/04/13 02:43:03;;;;;;;2.90;0.82;;;23.30;99.90;;;;;;5064383;28;20041;-61
2023/04/13 02:45:31;;;;;;;0.77;0.38;;;23.10;99.90;;;;;;5055497;28;20120;-62
2023/04/13 02:47:59;;;;;;;1.13;0.82;;;23.00;99.90;;;;;;5071372;28;20445;-62
2023/04/13 02:50:26;;;;;;;1.20;0.43;;;23.00;99.90;;;;;;5057412;28;20059;-62
2023/04/13 02:52:54;;;;;;;0.93;0.30;;;23.00;99.90;;;;;;5056036;28;20493;-62
2023/04/13 02:55:22;;;;;;;1.73;0.50;;;22.90;99.90;;;;;;5063464;28;20025;-62
2023/04/13 02:57:50;;;;;;;0.85;0.30;;;23.00;99.90;;;;;;5051693;28;20141;-62
2023/04/13 03:00:18;;;;;;;2.50;0.70;;;23.20;99.90;;;;;;5053653;28;20021;-63
2023/04/13 03:02:45;;;;;;;1.70;0.40;;;23.20;99.90;;;;;;5065047;28;20040;-62
2023/04/13 03:05:13;;;;;;;1.50;0.60;;;23.20;99.90;;;;;;5082706;28;20020;-62
2023/04/13 03:07:40;;;;;;;2.08;0.52;;;23.10;99.90;;;;;;5059575;28;20047;-63
2023/04/13 03:10:09;;;;;;;0.40;0.20;;;23.20;99.90;;;;;;5051263;28;20689;-61
2023/04/13 03:12:37;;;;;;;0.60;0.25;;;23.30;99.90;;;;;;5059617;28;20112;-62
2023/04/13 03:15:09;;;;;;;1.92;0.32;;;23.20;99.90;;;;;;5059351;28;20032;-62
2023/04/13 03:17:40;;;;;;;1.40;0.40;;;23.20;99.90;;;;;;5048755;28;20276;-61
2023/04/13 03:20:09;;;;;;;3.25;0.38;;;23.00;99.90;;;;;;5082467;28;20012;-62
2023/04/13 03:22:38;;;;;;;1.15;0.30;;;22.70;99.90;;;;;;5074100;28;20552;-60
2023/04/13 03:25:07;;;;;;;1.50;0.40;;;22.70;99.90;;;;;;5059469;28;20492;-61
2023/04/13 03:27:35;;;;;;;1.80;0.30;;;22.60;99.90;;;;;;5066025;28;20037;-61
2023/04/13 03:30:03;;;;;;;3.78;0.30;;;22.80;99.90;;;;;;5056564;28;20016;-61
2023/04/13 03:32:31;;;;;;;0.80;0.30;;;23.20;99.90;;;;;;5061451;28;20020;-64
2023/04/13 03:34:59;;;;;;;1.73;0.28;;;23.40;99.90;;;;;;5063510;28;20028;-62
2023/04/13 03:37:28;;;;;;;2.25;0.50;;;23.30;99.90;;;;;;5062511;28;20024;-62
2023/04/13 03:39:57;;;;;;;0.88;0.22;;;23.20;99.90;;;;;;5065028;28;20040;-61
2023/04/13 03:42:25;;;;;;;0.20;0.20;;;23.10;99.90;;;;;;5070097;28;20039;-62
2023/04/13 03:44:52;;;;;;;2.40;0.60;;;23.20;99.90;;;;;;5066565;28;20032;-63
2023/04/13 03:47:20;;;;;;;1.42;0.30;;;23.10;99.90;;;;;;5065367;28;20043;-61
2023/04/13 03:49:47;;;;;;;1.13;0.20;;;23.00;99.90;;;;;;5067313;28;20017;-62
2023/04/13 03:52:15;;;;;;;2.70;0.60;;;23.00;99.90;;;;;;5058125;28;20036;-60
2023/04/13 03:54:42;;;;;;;2.65;0.55;;;23.20;99.90;;;;;;5060555;28;20116;-62
2023/04/13 03:57:10;;;;;;;2.22;0.35;;;23.50;99.90;;;;;;5049540;28;20029;-61
2023/04/13 03:59:37;;;;;;;1.33;0.30;;;23.70;99.90;;;;;;5058594;28;20044;-61
2023/04/13 04:02:04;;;;;;;4.70;0.50;;;23.90;99.90;;;;;;5059572;28;20034;-62
2023/04/13 04:04:32;;;;;;;3.08;0.40;;;23.70;99.90;;;;;;5068628;28;20033;-62
2023/04/13 04:06:59;;;;;;;1.35;0.38;;;23.50;99.90;;;;;;5061118;28;20156;-61
2023/04/13 04:09:27;;;;;;;2.78;0.43;;;23.30;99.90;;;;;;5055338;28;20025;-60
2023/04/13 04:11:55;;;;;;;1.48;0.43;;;23.00;99.90;;;;;;5067626;28;20811;-61
2023/04/13 04:14:23;;;;;;;1.75;0.68;;;22.80;99.90;;;;;;5065390;28;20056;-62
2023/04/13 04:16:51;;;;;;;2.55;0.40;;;22.50;99.90;;;;;;5078545;28;20081;-62
2023/04/13 04:19:19;;;;;;;0.90;0.25;;;22.40;99.90;;;;;;5057421;28;20052;-62
2023/04/13 04:21:46;;;;;;;1.60;0.43;;;22.20;99.90;;;;;;5056047;28;20497;-61
2023/04/13 04:24:31;;;;;;;2.17;0.40;;;22.10;99.90;;;;;;5062209;28;20088;-61
2023/04/13 04:27:00;;;;;;;0.52;0.20;;;22.10;99.90;;;;;;5061382;28;20048;-60
2023/04/13 04:29:33;;;;;;;5.38;0.63;;;22.30;99.90;;;;;;5063537;28;20103;-60
2023/04/13 04:32:01;;;;;;;1.60;0.47;;;22.50;99.90;;;;;;5062891;28;20036;-61
2023/04/13 04:34:30;;;;;;;0.63;0.30;;;22.50;99.90;;;;;;5081623;28;20028;-60
2023/04/13 04:36:58;;;;;;;1.58;0.50;;;22.50;99.90;;;;;;5065757;28;20028;-61
2023/04/13 04:39:29;;;;;;;1.15;0.32;;;22.50;99.90;;;;;;5066478;28;20077;-60
2023/04/13 04:42:02;;;;;;;1.13;0.35;;;22.60;99.90;;;;;;5058463;28;20167;-61
2023/04/13 04:44:30;;;;;;;0.80;0.30;;;22.70;99.90;;;;;;5063545;28;20029;-61
2023/04/13 04:46:58;;;;;;;0.98;0.17;;;22.70;99.90;;;;;;5078016;28;20043;-60
2023/04/13 04:49:27;;;;;;;2.88;0.22;;;22.70;99.90;;;;;;5062528;28;20039;-60
2023/04/13 04:51:56;;;;;;;1.23;0.35;;;22.80;99.90;;;;;;5061674;28;20031;-61
2023/04/13 04:54:24;;;;;;;1.80;0.75;;;23.00;99.90;;;;;;5055204;28;20048;-60
2023/04/13 04:56:52;;;;;;;1.65;0.30;;;23.00;99.90;;;;;;5066243;28;20044;-61
2023/04/13 04:59:19;;;;;;;1.50;0.30;;;23.10;99.90;;;;;;5063404;28;20024;-61
2023/04/13 05:01:48;;;;;;;1.00;0.32;;;23.10;99.90;;;;;;5054257;28;20041;-61
2023/04/13 05:04:16;;;;;;;1.08;0.30;;;23.20;99.90;;;;;;5061134;28;20032;-62
2023/04/13 05:06:43;;;;;;;1.13;0.30;;;23.50;99.90;;;;;;5064443;28;20152;-62
2023/04/13 05:09:10;;;;;;;1.42;0.40;;;23.80;99.90;;;;;;5051195;28;20025;-61
2023/04/13 05:11:38;;;;;;;6.88;1.10;;;24.20;99.90;;;;;;5081581;28;20034;-61
2023/04/13 05:14:06;;;;;;;0.57;0.20;;;24.30;99.10;;;;;;5057161;28;20021;-61
2023/04/13 05:16:33;;;;;;;1.90;0.47;;;24.00;99.90;;;;;;5056633;28;20808;-63
2023/04/13 05:19:02;;;;;;;3.05;0.60;;;22.90;99.90;;;;;;5055906;28;20028;-61
2023/04/13 05:21:29;;;;;;;2.90;0.47;;;21.60;99.90;;;;;;5060253;28;20029;-59
2023/04/13 05:23:56;;;;;;;2.67;0.40;;;20.80;99.90;;;;;;5057041;28;20032;-60
2023/04/13 05:26:24;;;;;;;2.50;0.40;;;20.10;99.90;;;;;;5066139;28;20040;-59
2023/04/13 05:28:52;;;;;;;2.13;0.52;;;19.60;99.90;;;;;;5062700;28;20024;-59
2023/04/13 05:31:20;;;;;;;4.05;0.50;;;19.20;99.90;;;;;;5061901;28;20023;-60
2023/04/13 05:33:48;;;;;;;3.15;0.60;;;19.00;99.90;;;;;;5071410;28;20013;-63
2023/04/13 05:36:16;;;;;;;2.17;0.60;;;18.80;99.90;;;;;;5066776;28;20044;-59
2023/04/13 05:38:43;;;;;;;2.28;0.60;;;18.60;99.90;;;;;;5063980;28;20509;-60
2023/04/13 05:41:11;;;;;;;3.33;0.70;;;18.40;99.90;;;;;;5059349;28;20480;-59
2023/04/13 05:43:39;;;;;;;2.28;0.60;;;18.30;99.90;;;;;;5070020;28;20393;-59
2023/04/13 05:46:06;;;;;;;2.38;0.40;;;18.30;99.90;;;;;;5077812;28;20012;-59
2023/04/13 05:48:34;;;;;;;3.40;0.70;;;18.40;99.90;;;;;;5068053;28;20036;-58
2023/04/13 05:51:01;;;;;;;0.93;0.30;;;18.60;99.90;;;;;;5060555;28;20029;-59
2023/04/13 05:53:29;;;;;;;1.38;0.30;;;18.80;99.90;;;;;;5076749;28;20456;-58
2023/04/13 05:55:57;;;;;;;2.05;0.40;;;19.10;99.90;;;;;;5067016;28;20086;-59
2023/04/13 05:58:25;;;;;;;1.80;0.40;;;19.30;99.90;;;;;;5066019;28;20025;-58
2023/04/13 06:00:53;;;;;;;3.25;0.60;;;19.40;99.90;;;;;;5068182;28;20028;-59
2023/04/13 06:03:20;;;;;;;0.13;0.13;;;19.60;99.90;;;;;;5059124;28;20033;-58
2023/04/13 06:05:47;;;;;;;1.40;1.10;;;19.80;99.90;;;;;;5064408;28;20029;-59
2023/04/13 06:08:15;;;;;;;2.47;0.30;;;19.90;99.90;;;;;;5062436;28;20621;-59
2023/04/13 06:10:46;;;;;;;0.40;0.30;;;19.90;99.90;;;;;;5060160;28;20026;-60
2023/04/13 06:13:13;;;;;;;0.68;0.30;;;20.00;99.90;;;;;;5060400;28;20028;-58
2023/04/13 06:15:41;;;;;;;3.30;0.50;;;20.00;99.90;;;;;;5060740;28;20485;-57
2023/04/13 06:18:08;;;;;;;2.33;0.40;;;20.10;99.90;;;;;;5063876;28;20576;-59
2023/04/13 06:20:36;;;;;;;1.13;0.40;;;20.20;99.90;;;;;;5057223;28;20025;-58
2023/04/13 06:23:03;;;;;;;3.22;0.40;;;20.20;99.90;;;;;;5065906;28;20444;-58
2023/04/13 06:25:31;;;;;;;4.80;0.80;;;20.30;99.90;;;;;;5060938;28;20082;-60
2023/04/13 06:28:00;;;;;;;4.75;0.60;;;20.30;99.90;;;;;;5069470;28;20054;-58
2023/04/13 06:30:28;;;;;;;2.65;0.45;;;20.30;99.90;;;;;;5058176;28;20021;-59
2023/04/13 06:32:55;;;;;;;3.10;0.65;;;20.40;99.90;;;;;;5053974;28;20035;-59
2023/04/13 06:35:23;;;;;;;2.72;0.55;;;20.40;99.90;;;;;;5053517;28;20698;-59
2023/04/13 06:37:50;;;;;;;1.27;0.30;;;20.30;99.90;;;;;;5063976;28;20110;-59
2023/04/13 06:40:19;;;;;;;1.98;0.30;;;20.30;99.90;;;;;;5059862;28;20027;-59
2023/04/13 06:42:47;;;;;;;1.08;0.28;;;20.30;99.90;;;;;;5064228;28;20070;-63
2023/04/13 06:45:15;;;;;;;0.43;0.20;;;20.20;99.90;;;;;;5061614;28;20076;-58
2023/04/13 06:47:42;;;;;;;2.63;0.50;;;20.10;99.90;;;;;;5068216;28;20118;-59
2023/04/13 06:50:17;;;;;;;1.05;0.40;;;20.00;99.90;;;;;;5060409;28;20047;-58
2023/04/13 06:52:47;;;;;;;3.65;0.68;;;19.90;99.90;;;;;;5067436;28;20035;-62
2023/04/13 06:55:16;;;;;;;0.80;0.35;;;19.80;99.90;;;;;;5061320;28;20020;-59
2023/04/13 06:57:44;;;;;;;3.10;1.73;;;19.80;99.90;;;;;;5060770;28;20141;-59
2023/04/13 07:00:15;;;;;;;0.50;0.50;;;19.70;99.90;;;;;;5066658;28;20070;-60
2023/04/13 07:02:42;;;;;;;1.00;0.40;;;19.60;99.90;;;;;;5062921;28;20035;-60
2023/04/13 07:05:10;;;;;;;1.60;0.40;;;19.60;99.90;;;;;;5057606;28;20074;-58
2023/04/13 07:07:37;;;;;;;3.38;0.45;;;19.50;99.90;;;;;;5052782;28;20122;-59
2023/04/13 07:10:06;;;;;;;1.42;0.35;;;19.60;99.90;;;;;;5069196;28;20107;-59
2023/04/13 07:12:33;;;;;;;2.55;0.40;;;19.60;99.90;;;;;;5066865;28;20032;-59
2023/04/13 07:15:01;;;;;;;3.05;0.43;;;19.60;99.90;;;;;;5076045;28;20024;-59
2023/04/13 07:17:28;;;;;;;1.05;0.38;;;19.70;99.90;;;;;;5069050;28;20033;-59
2023/04/13 07:19:56;;;;;;;2.25;0.40;;;19.70;99.90;;;;;;5061646;28;20507;-59
2023/04/13 07:22:23;;;;;;;1.25;0.30;;;19.60;99.90;;;;;;5056807;28;20048;-59
2023/04/13 07:24:50;;;;;;;0.90;0.30;;;19.60;99.90;;;;;;5059284;28;20036;-60
2023/04/13 07:27:18;;;;;;;3.05;0.55;;;19.60;99.90;;;;;;5057086;28;20032;-59
2023/04/13 07:29:45;;;;;;;2.08;0.30;;;19.60;99.90;;;;;;5062293;28;20043;-61
2023/04/13 07:32:13;;;;;;;1.40;0.40;;;19.50;99.90;;;;;;5055604;28;20486;-59
2023/04/13 07:34:40;;;;;;;1.90;0.43;;;19.40;99.90;;;;;;5065619;28;20036;-59
2023/04/13 07:37:07;;;;;;;1.48;0.30;;;19.10;99.90;;;;;;5050996;28;20021;-60
2023/04/13 07:39:35;;;;;;;4.03;0.60;;;18.90;99.90;;;;;;5058596;28;20059;-60
2023/04/13 07:42:02;;;;;;;2.05;0.85;;;18.60;99.90;;;;;;5067154;28;20081;-60
2023/04/13 07:44:30;;;;;;;7.40;0.60;;;18.30;99.90;;;;;;5055565;28;20086;-60
2023/04/13 07:46:57;;;;;;;0.80;0.50;;;18.10;99.90;;;;;;5068222;28;20055;-61
2023/04/13 07:49:25;;;;;;;1.20;0.43;;;17.90;99.90;;;;;;5064486;28;20139;-61
2023/04/13 07:51:53;;;;;;;1.80;0.43;;;17.70;99.90;;;;;;5065772;28;20020;-61
2023/04/13 07:54:21;;;;;;;1.42;0.70;;;17.60;99.90;;;;;;5075921;28;20039;-62
2023/04/13 07:56:49;;;;;;;2.88;0.52;;;17.50;99.90;;;;;;5062024;28;20478;-62
2023/04/13 07:59:16;;;;;;;2.05;0.60;;;17.30;99.90;;;;;;5065580;28;20035;-61
2023/04/13 08:01:43;;;;;;;1.10;0.63;;;17.20;99.90;;;;;;5066523;28;20021;-60
2023/04/13 08:04:11;;;;;;;4.85;0.55;;;17.10;99.90;;;;;;5074676;28;20391;-60
2023/04/13 08:06:38;;;;;;;3.45;0.65;;;17.00;99.90;;;;;;5071911;28;20045;-59
2023/04/13 08:09:07;;;;;;;2.85;0.47;;;17.00;99.90;;;;;;5064321;28;20422;-59
2023/04/13 08:11:34;;;;;;;1.10;0.70;;;16.90;99.90;;;;;;5063033;28;20033;-60
2023/04/13 08:14:02;;;;;;;2.40;0.50;;;16.80;99.90;;;;;;5059495;28;20025;-59
2023/04/13 08:16:33;;;;;;;3.40;1.13;;;16.80;99.90;;;;;;5058872;28;20359;-59
2023/04/13 08:19:01;;;;;;;3.85;0.77;;;16.70;99.90;;;;;;5065441;28;20102;-60
2023/04/13 08:21:29;;;;;;;3.05;0.70;;;16.70;99.90;;;;;;5060077;28;20035;-60
2023/04/13 08:23:56;;;;;;;1.88;0.68;;;16.70;99.90;;;;;;5074412;28;20070;-62
2023/04/13 08:26:25;;;;;;;4.93;0.73;;;16.60;99.90;;;;;;5073153;28;20107;-61
2023/04/13 08:28:52;;;;;;;5.07;0.90;;;16.60;99.90;;;;;;5066621;28;20489;-60
2023/04/13 08:31:20;;;;;;;3.88;1.05;;;16.60;99.90;;;;;;5059858;28;20025;-61
2023/04/13 08:33:48;;;;;;;2.80;1.08;;;16.60;99.90;;;;;;5059734;28;20025;-61
2023/04/13 08:36:16;;;;;;;5.20;1.58;;;16.60;99.90;;;;;;5062999;28;20054;-60
2023/04/13 08:38:43;;;;;;;3.38;1.92;;;16.60;99.90;;;;;;5068504;28;20064;-61
2023/04/13 08:41:11;;;;;;;3.83;1.90;;;16.60;99.90;;;;;;5054597;28;20039;-62
2023/04/13 08:43:39;;;;;;;2.70;1.13;;;16.50;99.90;;;;;;5064753;28;20131;-61
2023/04/13 08:46:07;;;;;;;3.00;0.95;;;16.70;99.90;;;;;;5053284;28;20013;-61
2023/04/13 08:48:42;;;;;;;2.97;0.80;;;16.70;99.90;;;;;;5057066;28;20695;-62
2023/04/13 08:51:09;;;;;;;1.90;1.10;;;16.70;99.90;;;;;;5051915;28;20028;-61
2023/04/13 08:53:37;;;;;;;3.17;0.90;;;16.70;99.90;;;;;;5054554;28;20633;-62
2023/04/13 08:56:09;;;;;;;2.75;0.63;;;16.70;99.90;;;;;;5063862;28;20097;-62
2023/04/13 08:58:41;;;;;;;2.13;0.75;;;16.70;99.90;;;;;;5065197;28;20516;-62
2023/04/13 09:01:14;;;;;;;3.50;0.63;;;16.60;99.90;;;;;;5056954;28;20016;-62
2023/04/13 09:04:03;;;;;;;2.30;1.05;;;16.60;99.90;;;;;;5060892;28;20047;-62
2023/04/13 09:06:36;;;;;;;4.50;1.80;;;16.60;99.90;;;;;;5054051;28;20033;-62
2023/04/13 09:09:05;;;;;;;4.82;1.75;;;16.50;99.90;;;;;;5057890;28;20044;-62
2023/04/13 09:11:33;;;;;;;2.92;1.00;;;16.50;99.90;;;;;;5055740;28;20448;-61
2023/04/13 09:14:01;;;;;;;2.80;1.35;;;16.40;99.90;;;;;;5078119;28;20168;-61
2023/04/13 09:16:28;;;;;;;3.08;0.90;;;16.40;99.90;;;;;;5064765;28;20040;-62
2023/04/13 09:18:57;;;;;;;4.13;1.00;;;16.30;99.90;;;;;;5057045;28;20180;-61
2023/04/13 09:21:39;;;;;;;1.95;0.90;;;16.30;99.90;;;;;;5054620;28;20389;-60
2023/04/13 09:24:08;;;;;;;4.28;1.00;;;16.20;99.90;;;;;;5063863;28;20028;-61
2023/04/13 09:26:48;;;;;;;2.17;1.00;;;16.20;99.90;;;;;;5073837;28;20090;-61
2023/04/13 09:29:18;;;;;;;5.18;1.33;;;16.20;99.90;;;;;;5054580;28;20044;-61
2023/04/13 09:31:46;;;;;;;2.20;1.55;;;16.20;99.90;;;;;;5062056;28;20020;-61
2023/04/13 09:34:25;;;;;;;4.43;1.08;;;16.20;99.90;;;;;;5058837;28;20103;-60
2023/04/13 09:36:53;;;;;;;3.05;1.13;;;16.20;99.90;;;;;;5058553;28;20572;-62
2023/04/13 09:39:27;;;;;;;4.15;0.90;;;16.20;99.90;;;;;;5064014;28;20901;-60
2023/04/13 09:41:55;;;;;;;3.60;0.77;;;16.20;99.90;;;;;;5053671;28;20371;-61
2023/04/13 09:44:33;;;;;;;11.25;1.38;;;16.20;99.90;;;;;;5063303;28;20021;-62
2023/04/13 09:47:03;;;;;;;2.70;0.98;;;16.10;99.90;;;;;;5058978;28;20691;-61
2023/04/13 09:49:40;;;;;;;3.95;0.75;;;16.20;99.90;;;;;;5056691;28;20021;-62
2023/04/13 09:52:22;;;;;;;6.78;1.33;;;16.20;99.90;;;;;;5065551;28;20110;-60
2023/04/13 09:54:57;;;;;;;2.10;0.77;;;16.20;99.90;;;;;;5062472;28;20017;-60
2023/04/13 09:57:26;;;;;;;5.35;1.40;;;16.20;99.90;;;;;;5059021;28;20029;-61
2023/04/13 09:59:59;;;;;;;3.83;1.15;;;16.30;99.90;;;;;;5061973;28;20021;-60
2023/04/13 10:02:27;;;;;;;1.92;0.90;;;16.30;99.90;;;;;;5048868;28;20044;-61
2023/04/13 10:04:55;;;;;;;2.45;0.93;;;16.30;99.90;;;;;;5053861;28;20028;-60
2023/04/13 10:07:27;;;;;;;1.60;0.90;;;16.30;99.90;;;;;;5059921;28;20079;-59
2023/04/13 10:09:55;;;;;;;4.22;1.02;;;16.30;99.90;;;;;;5049725;28;20379;-59
2023/04/13 10:12:26;;;;;;;2.60;1.30;;;16.40;99.90;;;;;;5050464;28;20024;-61
2023/04/13 10:15:03;;;;;;;6.03;1.63;;;16.40;99.90;;;;;;5061835;28;20082;-60
2023/04/13 10:17:39;;;;;;;4.38;1.20;;;16.40;99.90;;;;;;5049681;28;20397;-60
2023/04/13 10:20:12;;;;;;;3.95;1.23;;;16.50;99.90;;;;;;5062335;28;20504;-61
2023/04/13 10:22:43;;;;;;;4.82;1.40;;;16.40;99.90;;;;;;5053548;28;20111;-60
2023/04/13 10:25:15;;;;;;;2.53;1.17;;;16.50;99.90;;;;;;5050993;28;20017;-60
2023/04/13 10:27:42;;;;;;;3.92;1.02;;;16.40;99.90;;;;;;5057019;28;20089;-61
2023/04/13 10:30:15;;;;;;;4.13;1.23;;;16.40;99.90;;;;;;5061113;28;20091;-61
2023/04/13 10:32:43;;;;;;;3.53;1.10;;;16.40;99.90;;;;;;5056793;28;20112;-61
2023/04/13 10:35:13;;;;;;;2.58;1.00;;;16.40;99.90;;;;;;5060224;28;20116;-62
2023/04/13 10:37:44;;;;;;;2.90;1.35;;;16.40;99.90;;;;;;5057964;28;20071;-61
2023/04/13 10:40:13;;;;;;;3.15;1.90;;;16.40;99.90;;;;;;5049316;28;20082;-61
2023/04/13 10:42:42;;;;;;;5.55;2.55;;;16.40;99.90;;;;;;5045388;28;20443;-62
2023/04/13 10:45:19;;;;;;;4.93;1.52;;;16.40;99.90;;;;;;5061529;28;20029;-60
2023/04/13 10:47:47;;;;;;;3.15;0.98;;;16.50;99.90;;;;;;5054310;28;20039;-60
2023/04/13 10:50:21;;;;;;;4.35;1.27;;;16.40;99.90;;;;;;5054161;28;20045;-60
2023/04/13 10:53:06;;;;;;;9.80;2.00;;;16.40;99.90;;;;;;5069237;28;20032;-61
2023/04/13 10:55:34;;;;;;;2.55;1.17;;;16.40;99.90;;;;;;5052589;28;20040;-61
2023/04/13 10:58:17;;;;;;;4.28;0.90;;;16.40;99.90;;;;;;5053096;28;20570;-61
2023/04/13 11:00:46;;;;;;;2.53;1.10;;;16.50;99.90;;;;;;5055307;28;20016;-61
2023/04/13 11:03:14;;;;;;;4.93;1.17;;;16.40;99.90;;;;;;5050059;28;20040;-61
2023/04/13 11:05:43;;;;;;;5.72;1.50;;;16.50;99.90;;;;;;5063131;28;20065;-61
2023/04/13 11:08:20;;;;;;;6.93;1.70;;;16.50;99.90;;;;;;5050469;28;20817;-61
2023/04/13 11:10:54;;;;;;;3.88;1.23;;;16.50;99.90;;;;;;5049620;28;20017;-63
2023/04/13 11:13:27;;;;;;;2.45;1.05;;;16.50;99.90;;;;;;5059062;28;20131;-60
2023/04/13 11:16:03;;;;;;;3.38;1.30;;;16.50;99.90;;;;;;5082649;28;20572;-60
2023/04/13 11:18:31;;;;;;;4.35;1.25;;;16.50;99.90;;;;;;5065789;28;20047;-61
2023/04/13 11:20:58;;;;;;;5.55;1.25;;;16.50;99.90;;;;;;5055375;28;20029;-61
2023/04/13 11:23:26;;;;;;;4.35;1.98;;;16.50;99.90;;;;;;5059889;28;20032;-60
2023/04/13 11:26:03;;;;;;;6.50;1.50;;;16.50;99.90;;;;;;5053597;28;20029;-60
2023/04/13 11:28:48;;;;;;;8.13;1.73;;;16.40;99.90;;;;;;5045194;28;20857;-62
2023/04/13 11:31:16;;;;;;;4.07;1.42;;;16.50;99.90;;;;;;5055629;28;20039;-61
2023/04/13 11:33:47;;;;;;;6.53;2.20;;;16.40;99.90;;;;;;5059941;28;20020;-61
2023/04/13 11:36:19;;;;;;;5.32;2.67;;;16.40;99.90;;;;;;5062117;28;20085;-62
2023/04/13 11:38:48;;;;;;;7.10;2.40;;;16.40;99.90;;;;;;5054807;28;20036;-62
2023/04/13 11:41:15;;;;;;;6.13;2.25;;;16.30;99.90;;;;;;5063004;28;20021;-61
2023/04/13 11:43:47;;;;;;;4.53;3.35;;;16.30;99.90;;;;;;5066651;28;20075;-63
2023/04/13 11:46:21;;;;;;;7.35;4.20;;;16.30;99.90;;;;;;5065405;28;20377;-63
2023/04/13 11:48:49;;;;;;;7.25;4.40;;;16.30;99.90;;;;;;5070693;28;20127;-61
2023/04/13 11:51:16;;;;;;;6.53;3.00;;;16.20;99.90;;;;;;5069087;28;20025;-61
2023/04/13 11:53:45;;;;;;;6.20;1.73;;;16.20;99.90;;;;;;5068431;28;20025;-61
2023/04/13 11:56:13;;;;;;;5.40;1.50;;;16.20;99.90;;;;;;5066199;28;20088;-61
2023/04/13 11:58:41;;;;;;;7.15;1.60;;;16.20;99.90;;;;;;5059306;28;21829;-61
2023/04/13 12:01:09;;;;;;;1.67;1.17;;;16.20;99.90;;;;;;5072824;28;20432;-61
2023/04/13 12:03:39;;;;;;;2.45;1.23;;;16.20;99.90;;;;;;5063337;28;20183;-62
2023/04/13 12:06:07;;;;;;;3.33;1.80;;;16.20;99.90;;;;;;5068021;28;20032;-60
2023/04/13 12:08:35;;;;;;;5.10;1.50;;;16.20;99.90;;;;;;5067338;28;20520;-60
2023/04/13 12:11:05;;;;;;;5.32;1.60;;;16.20;99.90;;;;;;5059219;28;20032;-61
2023/04/13 12:13:40;;;;;;;5.35;1.25;;;16.20;99.90;;;;;;5069486;28;20048;-61
2023/04/13 12:16:08;;;;;;;1.98;1.40;;;16.20;99.90;;;;;;5055670;28;20025;-61
2023/04/13 12:18:46;;;;;;;3.38;1.35;;;16.20;99.90;;;;;;5057522;28;20115;-61
2023/04/13 12:21:16;;;;;;;4.05;1.38;;;16.20;99.90;;;;;;5056617;28;20056;-62
2023/04/13 12:24:03;;;;;;;4.55;1.58;;;16.10;99.90;;;;;;5067968;28;20120;-61
2023/04/13 12:26:31;;;;;;;3.50;1.60;;;16.10;99.90;;;;;;5066478;28;20029;-61
2023/04/13 12:29:02;;;;;;;4.55;2.13;;;16.00;99.90;;;;;;5069006;28;20047;-61
2023/04/13 12:31:37;;;;;;;3.83;2.50;;;16.00;99.90;;;;;;5055726;28;20036;-61
2023/04/13 12:34:08;;;;;;;5.07;2.17;;;16.00;99.90;;;;;;5064560;28;20033;-61
2023/04/13 12:36:35;;;;;;;7.80;2.38;;;16.00;99.90;;;;;;5053867;28;20032;-61
2023/04/13 12:39:04;;;;;;;4.65;2.63;;;16.00;99.90;;;;;;5059066;28;20090;-61
2023/04/13 12:41:32;;;;;;;5.10;2.50;;;16.00;99.90;;;;;;5064873;28;20035;-62
2023/04/13 12:44:00;;;;;;;3.70;2.40;;;16.00;99.90;;;;;;5090119;28;20051;-60
2023/04/13 12:46:27;;;;;;;3.75;2.22;;;16.00;99.90;;;;;;5052550;28;20035;-61
2023/04/13 12:48:55;;;;;;;4.72;2.45;;;16.00;99.90;;;;;;5057445;28;20033;-61
2023/04/13 12:51:22;;;;;;;5.22;1.80;;;16.00;99.90;;;;;;5061659;28;20017;-62
2023/04/13 12:53:50;;;;;;;7.10;2.63;;;15.90;99.90;;;;;;5061552;28;20039;-62
2023/04/13 12:56:17;;;;;;;7.68;2.50;;;15.90;99.90;;;;;;5056311;28;20111;-62
2023/04/13 12:58:45;;;;;;;7.45;4.68;;;15.90;99.90;;;;;;5055497;28;20017;-62
2023/04/13 13:01:12;;;;;;;7.45;5.00;;;15.90;99.90;;;;;;5073287;28;20504;-62